createdAt,value
2023-05-08T00:00:50.156Z,74.52
2023-05-08T00:03:18.307Z,74.70
2023-05-08T00:05:46.567Z,74.90
2023-05-08T00:08:18.305Z,74.64
2023-05-08T00:10:49.850Z,74.36
2023-05-08T00:13:19.610Z,74.82
2023-05-08T00:15:48.506Z,74.98
2023-05-08T00:18:19.363Z,74.68
2023-05-08T00:20:47.453Z,75.16
2023-05-08T00:23:15.559Z,73.74
2023-05-08T00:25:45.234Z,74.66
2023-05-08T00:28:15.596Z,74.49
2023-05-08T00:30:45.578Z,74.46
2023-05-08T00:33:14.366Z,73.77
2023-05-08T00:35:44.678Z,73.80
2023-05-08T00:38:12.865Z,74.13
2023-05-08T00:40:43.776Z,74.87
2023-05-08T00:43:15.089Z,74.91
2023-05-08T00:45:42.867Z,73.98
2023-05-08T00:48:10.953Z,74.53
2023-05-08T00:50:38.844Z,74.65
2023-05-08T00:53:07.975Z,74.79
2023-05-08T00:55:36.079Z,74.70
2023-05-08T00:58:04.822Z,74.40
2023-05-08T01:00:35.514Z,74.23
2023-05-08T01:03:03.775Z,75.01
2023-05-08T01:05:32.165Z,74.93
2023-05-08T01:08:00.195Z,75.19
2023-05-08T01:10:44.100Z,75.03
2023-05-08T01:13:17.837Z,74.56
2023-05-08T01:15:51.755Z,74.08
2023-05-08T01:18:29.129Z,73.72
2023-05-08T01:21:08.672Z,74.57
2023-05-08T01:24:17.470Z,74.46
2023-05-08T01:27:30.959Z,74.42
2023-05-08T01:30:29.441Z,74.42
2023-05-08T01:33:03.665Z,74.61
2023-05-08T01:35:40.790Z,74.47
2023-05-08T01:38:20.634Z,75.47
2023-05-08T01:40:56.435Z,74.91
2023-05-08T01:43:31.317Z,74.44
2023-05-08T01:46:06.472Z,74.57
2023-05-08T01:48:40.285Z,73.79
2023-05-08T01:51:13.461Z,74.81
2023-05-08T01:53:46.033Z,75.09
2023-05-08T01:56:19.568Z,75.38
2023-05-08T01:58:49.598Z,75.07
2023-05-08T02:01:23.284Z,75.89
2023-05-08T02:03:56.508Z,76.27
2023-05-08T02:06:26.933Z,75.45
2023-05-08T02:08:58.542Z,75.41
2023-05-08T02:11:27.183Z,74.95
2023-05-08T02:13:58.884Z,75.22
2023-05-08T02:16:27.974Z,75.58
2023-05-08T02:19:02.119Z,75.93
2023-05-08T02:21:33.316Z,76.53
2023-05-08T02:24:03.459Z,75.57
2023-05-08T02:26:34.998Z,75.64
2023-05-08T02:29:04.836Z,75.47
2023-05-08T02:31:33.795Z,76.58
2023-05-08T02:34:07.566Z,76.18
2023-05-08T02:36:37.290Z,76.52
2023-05-08T02:39:09.407Z,76.88
2023-05-08T02:41:40.178Z,76.24
2023-05-08T02:44:08.328Z,76.44
2023-05-08T02:46:45.204Z,76.08
2023-05-08T02:49:33.907Z,76.50
2023-05-08T02:52:09.746Z,76.46
2023-05-08T02:54:47.520Z,76.49
2023-05-08T02:57:23.187Z,76.46
2023-05-08T02:59:58.504Z,76.47
2023-05-08T03:02:36.413Z,75.87
2023-05-08T03:05:17.098Z,76.56
2023-05-08T03:07:52.202Z,76.24
2023-05-08T03:10:22.550Z,75.73
2023-05-08T03:12:54.466Z,75.84
2023-05-08T03:15:27.930Z,75.67
2023-05-08T03:18:04.129Z,76.04
2023-05-08T03:20:40.782Z,76.60
2023-05-08T03:23:10.781Z,76.63
2023-05-08T03:25:41.058Z,76.86
2023-05-08T03:28:09.641Z,77.14
2023-05-08T03:30:40.203Z,76.38
2023-05-08T03:33:09.598Z,76.13
2023-05-08T03:35:40.045Z,77.04
2023-05-08T03:38:12.211Z,77.33
2023-05-08T03:40:42.821Z,76.93
2023-05-08T03:43:11.118Z,77.34
2023-05-08T03:45:40.275Z,77.84
2023-05-08T03:48:10.323Z,77.74
2023-05-08T03:50:39.949Z,77.87
2023-05-08T03:53:13.111Z,77.65
2023-05-08T03:55:45.568Z,77.81
2023-05-08T03:58:22.258Z,78.78
2023-05-08T04:01:00.349Z,78.00
2023-05-08T04:03:47.395Z,78.76
2023-05-08T04:06:28.729Z,78.66
2023-05-08T04:09:06.884Z,79.00
2023-05-08T04:11:42.143Z,79.56
2023-05-08T04:14:17.667Z,79.12
2023-05-08T04:17:04.202Z,79.30
2023-05-08T04:19:37.117Z,79.30
2023-05-08T04:22:10.410Z,79.85
2023-05-08T04:24:43.024Z,81.67
2023-05-08T04:27:12.383Z,81.16
2023-05-08T04:29:40.958Z,81.04
2023-05-08T04:32:13.744Z,81.47
2023-05-08T04:34:43.621Z,82.42
2023-05-08T04:37:27.520Z,82.03
2023-05-08T04:39:55.869Z,81.95
2023-05-08T04:42:25.989Z,81.95
2023-05-08T04:44:54.135Z,81.83
2023-05-08T04:47:24.083Z,81.69
2023-05-08T04:49:53.005Z,80.83
2023-05-08T04:52:21.011Z,81.16
2023-05-08T04:54:51.240Z,80.98
2023-05-08T04:57:19.323Z,80.82
2023-05-08T04:59:47.777Z,80.90
2023-05-08T05:02:16.716Z,80.74
2023-05-08T05:04:44.840Z,80.27
2023-05-08T05:07:12.996Z,80.51
2023-05-08T05:09:41.023Z,80.12
2023-05-08T05:12:10.285Z,80.47
2023-05-08T05:14:39.415Z,80.14
2023-05-08T05:17:07.668Z,79.50
2023-05-08T05:19:37.501Z,78.62
2023-05-08T05:22:09.340Z,79.48
2023-05-08T05:24:39.484Z,80.17
2023-05-08T05:27:08.819Z,80.71
2023-05-08T05:29:43.467Z,79.65
2023-05-08T05:32:11.986Z,79.41
2023-05-08T05:34:39.947Z,79.84
2023-05-08T05:37:09.119Z,79.77
2023-05-08T05:39:37.774Z,79.21
2023-05-08T05:42:10.361Z,79.41
2023-05-08T05:44:43.144Z,79.28
2023-05-08T05:47:14.915Z,79.98
2023-05-08T05:49:47.226Z,79.77
2023-05-08T05:52:16.693Z,80.15
2023-05-08T05:54:44.528Z,80.02
2023-05-08T05:57:13.246Z,80.56
2023-05-08T05:59:45.685Z,80.25
2023-05-08T06:02:20.361Z,80.34
2023-05-08T06:04:50.074Z,80.08
2023-05-08T06:07:20.908Z,79.62
2023-05-08T06:09:53.843Z,79.57
2023-05-08T06:12:22.560Z,79.50
2023-05-08T06:14:55.442Z,80.54
2023-05-08T06:17:24.806Z,80.90
2023-05-08T06:19:56.678Z,81.81
2023-05-08T06:22:25.685Z,82.84
2023-05-08T06:24:54.638Z,82.64
2023-05-08T06:27:23.621Z,83.06
2023-05-08T06:29:54.079Z,83.40
2023-05-08T06:32:24.857Z,83.62
2023-05-08T06:34:53.094Z,83.73
2023-05-08T06:37:21.442Z,84.21
2023-05-08T06:39:57.280Z,84.09
2023-05-08T06:42:34.049Z,84.07
2023-05-08T06:45:06.485Z,84.71
2023-05-08T06:47:34.673Z,85.08
2023-05-08T06:50:04.918Z,85.15
2023-05-08T06:52:33.267Z,84.37
2023-05-08T06:55:02.500Z,85.33
2023-05-08T06:57:32.175Z,84.28
2023-05-08T07:00:00.837Z,84.16
2023-05-08T07:02:39.073Z,85.13
2023-05-08T07:05:08.944Z,84.63
2023-05-08T07:07:37.156Z,84.31
2023-05-08T07:10:07.259Z,83.82
2023-05-08T07:12:36.242Z,82.76
2023-05-08T07:15:13.786Z,82.83
2023-05-08T07:17:48.061Z,83.12
2023-05-08T07:20:18.598Z,81.67
2023-05-08T07:22:48.016Z,82.05
2023-05-08T07:25:16.327Z,81.88
2023-05-08T07:27:47.954Z,79.92
2023-05-08T07:30:17.131Z,80.51
2023-05-08T07:32:48.100Z,79.75
2023-05-08T07:35:17.127Z,80.51
2023-05-08T07:37:45.477Z,80.03
2023-05-08T07:40:13.952Z,78.68
2023-05-08T07:42:43.455Z,79.58
2023-05-08T07:45:13.851Z,79.13
2023-05-08T07:47:52.224Z,78.12
2023-05-08T07:50:21.566Z,77.19
2023-05-08T07:52:50.488Z,78.48
2023-05-08T07:55:18.558Z,79.26
2023-05-08T07:57:47.471Z,78.45
2023-05-08T08:00:19.860Z,79.05
2023-05-08T08:02:48.680Z,78.30
2023-05-08T08:05:19.104Z,77.29
2023-05-08T08:07:47.952Z,77.16
2023-05-08T08:10:16.023Z,78.29
2023-05-08T08:12:46.216Z,76.38
2023-05-08T08:15:15.576Z,76.15
2023-05-08T08:17:44.487Z,76.58
2023-05-08T08:20:21.173Z,76.28
2023-05-08T08:22:51.289Z,75.70
2023-05-08T08:25:19.656Z,76.68
2023-05-08T08:27:50.469Z,76.23
2023-05-08T08:30:21.915Z,75.91
2023-05-08T08:32:50.752Z,75.46
2023-05-08T08:35:21.478Z,74.57
2023-05-08T08:37:52.705Z,75.02
2023-05-08T08:40:20.998Z,74.82
2023-05-08T08:42:50.720Z,75.54
2023-05-08T08:45:22.265Z,73.72
2023-05-08T08:47:54.888Z,74.34
2023-05-08T08:50:27.782Z,73.71
2023-05-08T08:53:08.899Z,74.41
2023-05-08T08:55:41.964Z,73.91
2023-05-08T08:58:19.262Z,73.13
2023-05-08T09:00:49.058Z,72.31
2023-05-08T09:03:19.082Z,74.49
2023-05-08T09:05:57.506Z,74.41
2023-05-08T09:08:27.934Z,74.62
2023-05-08T09:10:58.077Z,74.51
2023-05-08T09:13:29.940Z,74.03
2023-05-08T09:16:01.265Z,74.03
2023-05-08T09:18:29.476Z,74.68
2023-05-08T09:20:58.670Z,73.95
2023-05-08T09:23:30.581Z,75.08
2023-05-08T09:25:59.098Z,75.07
2023-05-08T09:28:27.514Z,75.47
2023-05-08T09:31:01.959Z,75.17
2023-05-08T09:33:31.742Z,75.52
2023-05-08T09:36:00.890Z,75.56
2023-05-08T09:41:25.443Z,76.24
2023-05-08T09:44:05.164Z,75.29
2023-05-08T09:46:36.971Z,74.87
2023-05-08T09:49:05.413Z,75.44
2023-05-08T09:51:36.643Z,75.51
2023-05-08T09:54:19.242Z,76.03
2023-05-08T09:56:47.343Z,75.04
2023-05-08T09:59:28.699Z,75.56
2023-05-08T10:01:58.210Z,75.38
2023-05-08T10:04:33.617Z,75.45
2023-05-08T10:07:02.076Z,75.44
2023-05-08T10:09:47.077Z,75.80
2023-05-08T10:12:23.594Z,75.01
2023-05-08T10:14:52.292Z,74.33
2023-05-08T10:17:27.428Z,72.68
2023-05-08T10:20:00.240Z,71.20
2023-05-08T10:22:33.724Z,72.38
2023-05-08T10:25:08.802Z,70.86
2023-05-08T10:27:47.929Z,69.64
2023-05-08T10:30:18.656Z,69.55
2023-05-08T10:32:52.240Z,68.58
2023-05-08T10:35:20.863Z,69.58
2023-05-08T10:37:52.818Z,69.66
2023-05-08T10:40:23.683Z,68.60
2023-05-08T10:42:52.861Z,68.72
2023-05-08T10:45:29.266Z,66.20
2023-05-08T10:48:05.297Z,67.55
2023-05-08T10:50:55.900Z,66.94
2023-05-08T10:53:33.423Z,67.19
2023-05-08T10:56:08.210Z,67.97
2023-05-08T10:58:40.467Z,67.23
2023-05-08T11:01:24.635Z,67.15
2023-05-08T11:03:56.226Z,64.78
2023-05-08T11:06:45.518Z,66.66
2023-05-08T11:09:21.869Z,65.41
2023-05-08T11:12:05.241Z,65.02
2023-05-08T11:14:41.582Z,63.65
2023-05-08T11:17:18.568Z,62.54
2023-05-08T11:19:59.720Z,62.64
2023-05-08T11:22:33.593Z,62.57
2023-05-08T11:25:05.386Z,61.84
2023-05-08T11:27:42.977Z,61.71
2023-05-08T11:30:36.387Z,61.21
2023-05-08T11:33:34.451Z,60.09
2023-05-08T11:36:17.422Z,61.82
2023-05-08T11:39:05.659Z,62.51
2023-05-08T11:41:36.222Z,62.93
2023-05-08T11:44:29.351Z,63.27
2023-05-08T11:47:04.549Z,63.39
2023-05-08T11:49:37.418Z,62.81
2023-05-08T11:52:06.537Z,62.12
2023-05-08T11:54:43.686Z,60.05
2023-05-08T11:57:18.499Z,62.23
2023-05-08T11:59:51.363Z,62.70
2023-05-08T12:02:22.863Z,59.17
2023-05-08T12:04:50.739Z,58.84
2023-05-08T12:07:20.571Z,59.68
2023-05-08T12:09:50.169Z,60.88
2023-05-08T12:12:22.317Z,61.86
2023-05-08T12:14:53.571Z,60.91
2023-05-08T12:17:21.959Z,58.43
2023-05-08T12:19:50.374Z,58.90
2023-05-08T12:22:23.968Z,59.46
2023-05-08T12:24:52.377Z,58.44
2023-05-08T12:27:22.400Z,58.44
2023-05-08T12:29:50.393Z,58.25
2023-05-08T12:32:20.593Z,56.84
2023-05-08T12:34:49.636Z,57.02
2023-05-08T12:37:25.462Z,57.06
2023-05-08T12:39:53.968Z,58.48
2023-05-08T12:42:22.488Z,56.10
2023-05-08T12:44:51.957Z,54.41
2023-05-08T12:47:26.848Z,54.71
2023-05-08T12:49:59.653Z,54.85
2023-05-08T12:52:29.422Z,55.80
2023-05-08T12:54:57.431Z,56.64
2023-05-08T12:57:26.761Z,57.35
2023-05-08T13:00:06.695Z,55.16
2023-05-08T13:02:41.713Z,54.06
2023-05-08T13:05:23.954Z,56.82
2023-05-08T13:07:53.260Z,57.02
2023-05-08T13:10:26.026Z,58.76
2023-05-08T13:12:56.690Z,56.91
2023-05-08T13:15:25.476Z,55.52
2023-05-08T13:17:55.098Z,54.83
2023-05-08T13:20:23.884Z,54.23
2023-05-08T13:22:51.823Z,57.01
2023-05-08T13:25:25.638Z,56.01
2023-05-08T13:27:57.136Z,54.31
2023-05-08T13:30:26.762Z,54.65
2023-05-08T13:32:57.421Z,57.05
2023-05-08T13:35:28.809Z,57.74
2023-05-08T13:37:57.030Z,58.80
2023-05-08T13:40:26.756Z,59.23
2023-05-08T13:42:54.824Z,57.59
2023-05-08T13:45:24.022Z,58.83
2023-05-08T13:47:55.720Z,59.69
2023-05-08T13:50:28.151Z,57.13
2023-05-08T13:52:57.481Z,57.91
2023-05-08T13:55:26.557Z,56.50
2023-05-08T13:57:54.879Z,55.95
2023-05-08T14:00:23.581Z,58.21
2023-05-08T14:02:56.125Z,58.54
2023-05-08T14:05:27.817Z,57.30
2023-05-08T14:07:55.852Z,59.98
2023-05-08T14:10:24.558Z,55.88
2023-05-08T14:12:52.748Z,57.17
2023-05-08T14:15:34.608Z,58.51
2023-05-08T14:18:06.051Z,57.90
2023-05-08T14:20:36.022Z,57.09
2023-05-08T14:23:04.782Z,57.02
2023-05-08T14:25:34.018Z,58.47
2023-05-08T14:28:03.169Z,57.39
2023-05-08T14:30:33.629Z,57.99
2023-05-08T14:33:02.890Z,55.95
2023-05-08T14:35:36.345Z,55.42
2023-05-08T14:38:13.082Z,57.70
2023-05-08T14:40:41.219Z,58.12
2023-05-08T14:43:10.239Z,54.26
2023-05-08T14:45:39.146Z,55.10
2023-05-08T14:48:09.715Z,49.28
2023-05-08T14:50:41.077Z,52.45
2023-05-08T14:53:11.178Z,50.64
2023-05-08T14:55:41.680Z,50.67
2023-05-08T14:58:10.071Z,55.23
2023-05-08T15:00:43.254Z,54.56
2023-05-08T15:03:13.364Z,50.53
2023-05-08T15:05:44.969Z,50.34
2023-05-08T15:08:20.553Z,52.09
2023-05-08T15:10:50.973Z,51.29
2023-05-08T15:13:18.793Z,55.72
2023-05-08T15:15:49.441Z,55.09
2023-05-08T15:18:18.585Z,55.03
2023-05-08T15:20:48.446Z,55.38
2023-05-08T15:23:23.429Z,56.52
2023-05-08T15:25:52.972Z,57.37
2023-05-08T15:28:21.260Z,57.85
2023-05-08T15:30:54.202Z,57.69
2023-05-08T15:33:23.740Z,58.22
2023-05-08T15:35:56.186Z,58.37
2023-05-08T15:38:28.843Z,59.84
2023-05-08T15:41:03.195Z,60.04
2023-05-08T15:43:31.443Z,61.32
2023-05-08T15:46:02.777Z,59.89
2023-05-08T15:48:31.050Z,61.30
2023-05-08T15:51:01.631Z,61.92
2023-05-08T15:53:33.986Z,63.17
2023-05-08T15:56:02.204Z,63.58
2023-05-08T15:58:30.257Z,62.77
2023-05-08T16:00:58.638Z,62.95
2023-05-08T16:03:36.460Z,63.42
2023-05-08T16:06:05.736Z,63.25
2023-05-08T16:08:35.001Z,63.91
2023-05-08T16:11:02.911Z,64.10
2023-05-08T16:13:31.875Z,63.55
2023-05-08T16:16:17.530Z,63.63
2023-05-08T16:18:50.913Z,65.11
2023-05-08T16:21:21.505Z,64.85
2023-05-08T16:23:54.285Z,64.83
2023-05-08T16:26:24.620Z,65.89
2023-05-08T16:28:54.728Z,64.68
2023-05-08T16:31:23.456Z,65.01
2023-05-08T16:33:51.527Z,64.84
2023-05-08T16:36:23.043Z,65.48
2023-05-08T16:38:50.933Z,65.36
2023-05-08T16:41:22.269Z,66.12
2023-05-08T16:43:51.782Z,66.46
2023-05-08T16:46:29.107Z,65.42
2023-05-08T16:48:58.713Z,65.81
2023-05-08T16:51:29.065Z,65.26
2023-05-08T16:53:58.208Z,65.80
2023-05-08T16:56:29.080Z,65.74
2023-05-08T16:58:57.118Z,65.58
2023-05-08T17:01:25.438Z,65.88
2023-05-08T17:03:54.434Z,65.89
2023-05-08T17:06:22.674Z,65.38
2023-05-08T17:08:50.749Z,64.83
2023-05-08T17:11:18.773Z,65.58
2023-05-08T17:13:48.331Z,65.84
2023-05-08T17:16:17.707Z,65.91
2023-05-08T17:18:47.348Z,66.10
2023-05-08T17:21:21.061Z,66.80
2023-05-08T17:23:49.656Z,66.75
2023-05-08T17:26:19.761Z,66.81
2023-05-08T17:28:52.799Z,66.62
2023-05-08T17:31:21.645Z,66.68
2023-05-08T17:33:52.117Z,66.02
2023-05-08T17:36:20.463Z,67.17
2023-05-08T17:38:50.464Z,67.57
2023-05-08T17:41:18.863Z,67.41
2023-05-08T17:43:46.946Z,67.43
2023-05-08T17:46:17.788Z,67.78
2023-05-08T17:48:46.204Z,68.36
2023-05-08T17:51:15.558Z,68.15
2023-05-08T17:53:48.913Z,68.30
2023-05-08T17:56:20.363Z,68.33
2023-05-08T17:58:48.429Z,68.09
2023-05-08T18:01:18.730Z,68.74
2023-05-08T18:03:48.321Z,68.75
2023-05-08T18:06:17.185Z,68.89
2023-05-08T18:08:46.966Z,68.52
2023-05-08T18:11:18.706Z,69.08
2023-05-08T18:13:47.403Z,68.98
2023-05-08T18:16:19.906Z,69.10
2023-05-08T18:18:48.549Z,69.74
2023-05-08T18:21:17.740Z,69.92
2023-05-08T18:23:45.634Z,70.29
2023-05-08T18:26:19.164Z,70.06
2023-05-08T18:28:47.141Z,70.25
2023-05-08T18:31:16.624Z,70.45
2023-05-08T18:33:46.727Z,70.58
2023-05-08T18:36:14.671Z,70.05
2023-05-08T18:38:44.310Z,70.31
2023-05-08T18:41:12.411Z,71.00
2023-05-08T18:43:41.806Z,70.97
2023-05-08T18:46:18.066Z,71.40
2023-05-08T18:48:47.598Z,70.98
2023-05-08T18:51:15.763Z,71.55
2023-05-08T18:53:45.346Z,71.12
2023-05-08T18:56:13.121Z,71.22
2023-05-08T18:58:42.290Z,70.79
2023-05-08T19:01:10.462Z,72.45
2023-05-08T19:03:39.788Z,72.36
2023-05-08T19:06:10.096Z,72.83
2023-05-08T19:08:40.357Z,72.56
2023-05-08T19:11:08.567Z,72.32
2023-05-08T19:13:37.058Z,72.36
2023-05-08T19:16:06.937Z,72.20
2023-05-08T19:18:36.127Z,72.44
2023-05-08T19:21:03.987Z,72.67
2023-05-08T19:23:34.158Z,73.22
2023-05-08T19:26:02.166Z,73.74
2023-05-08T19:28:32.027Z,73.98
2023-05-08T19:31:03.446Z,74.03
2023-05-08T19:33:32.909Z,74.06
2023-05-08T19:36:03.623Z,73.44
2023-05-08T19:38:32.826Z,73.34
2023-05-08T19:41:01.958Z,73.28
2023-05-08T19:43:30.505Z,72.78
2023-05-08T19:45:58.557Z,72.69
2023-05-08T19:48:28.413Z,73.57
2023-05-08T19:50:58.357Z,74.18
2023-05-08T19:53:29.030Z,73.23
2023-05-08T19:56:00.785Z,74.37
2023-05-08T19:58:28.986Z,74.46
2023-05-08T20:00:59.783Z,73.75
2023-05-08T20:03:28.216Z,73.89
2023-05-08T20:05:57.592Z,74.18
2023-05-08T20:08:25.675Z,74.62
2023-05-08T20:10:54.120Z,74.74
2023-05-08T20:13:23.840Z,74.50
2023-05-08T20:15:56.953Z,75.09
2023-05-08T20:18:27.498Z,75.17
2023-05-08T20:20:56.325Z,75.40
2023-05-08T20:23:25.426Z,75.41
2023-05-08T20:25:55.272Z,76.20
2023-05-08T20:28:26.188Z,76.47
2023-05-08T20:30:58.812Z,76.42
2023-05-08T20:33:27.917Z,76.98
2023-05-08T20:35:59.746Z,76.02
2023-05-08T20:38:29.746Z,76.66
2023-05-08T20:41:00.886Z,76.77
2023-05-08T20:43:34.609Z,77.48
2023-05-08T20:46:02.618Z,78.38
2023-05-08T20:48:32.039Z,78.18
2023-05-08T20:51:00.993Z,78.79
2023-05-08T20:53:29.221Z,79.32
2023-05-08T20:56:04.238Z,79.21
2023-05-08T20:58:35.212Z,79.25
2023-05-08T21:01:03.277Z,79.59
2023-05-08T21:03:31.816Z,80.09
2023-05-08T21:06:00.824Z,80.00
2023-05-08T21:08:29.434Z,80.17
2023-05-08T21:10:57.185Z,79.47
2023-05-08T21:13:27.004Z,79.23
2023-05-08T21:15:56.786Z,78.98
2023-05-08T21:18:27.703Z,79.82
2023-05-08T21:20:55.934Z,79.81
2023-05-08T21:23:25.672Z,80.64
2023-05-08T21:25:53.577Z,81.01
2023-05-08T21:28:22.092Z,80.94
2023-05-08T21:30:54.276Z,81.70
2023-05-08T21:33:25.766Z,81.51
2023-05-08T21:35:57.441Z,81.79
2023-05-08T21:38:25.543Z,81.45
2023-05-08T21:40:53.846Z,81.31
2023-05-08T21:43:22.327Z,81.52
2023-05-08T21:45:51.871Z,82.17
2023-05-08T21:48:19.969Z,82.42
2023-05-08T21:50:49.038Z,82.18
2023-05-08T21:53:19.148Z,82.89
2023-05-08T21:55:50.976Z,83.44
2023-05-08T21:58:19.421Z,83.17
2023-05-08T22:00:47.441Z,82.92
2023-05-08T22:03:16.688Z,83.00
2023-05-08T22:05:47.722Z,83.19
2023-05-08T22:08:17.295Z,83.58
2023-05-08T22:10:46.184Z,83.59
2023-05-08T22:13:14.726Z,83.98
2023-05-08T22:15:44.144Z,84.32
2023-05-08T22:18:13.350Z,85.07
2023-05-08T22:20:41.451Z,85.63
2023-05-08T22:23:09.752Z,85.12
2023-05-08T22:25:39.528Z,84.77
2023-05-08T22:28:08.297Z,84.71
2023-05-08T22:30:37.320Z,84.97
2023-05-08T22:33:09.215Z,85.60
2023-05-08T22:35:38.287Z,85.86
2023-05-08T22:38:06.040Z,86.36
2023-05-08T22:40:35.684Z,86.44
2023-05-08T22:43:07.513Z,86.50
2023-05-08T22:45:35.683Z,86.21
2023-05-08T22:48:06.751Z,85.25
2023-05-08T22:50:36.459Z,84.71
2023-05-08T22:53:08.195Z,84.75
2023-05-08T22:55:36.511Z,84.78
2023-05-08T22:58:06.896Z,85.05
2023-05-08T23:00:35.319Z,84.48
2023-05-08T23:03:03.670Z,84.46
2023-05-08T23:05:32.008Z,84.42
2023-05-08T23:08:01.213Z,84.59
2023-05-08T23:10:31.937Z,84.65
2023-05-08T23:12:59.709Z,84.75
2023-05-08T23:15:31.070Z,84.03
2023-05-08T23:18:01.764Z,82.17
2023-05-08T23:20:29.502Z,82.54
2023-05-08T23:22:57.948Z,82.11
2023-05-08T23:25:27.584Z,82.84
2023-05-08T23:27:55.523Z,83.47
2023-05-08T23:30:23.488Z,82.97
2023-05-08T23:32:55.862Z,83.29
2023-05-08T23:35:24.845Z,83.65
2023-05-08T23:37:54.261Z,83.05
2023-05-08T23:40:22.655Z,84.22
2023-05-08T23:42:52.023Z,84.40
2023-05-08T23:45:20.067Z,84.23
2023-05-08T23:47:49.901Z,84.66
2023-05-08T23:50:20.427Z,85.34
2023-05-08T23:52:49.159Z,85.07
2023-05-08T23:55:17.079Z,84.85
2023-05-08T23:57:45.756Z,84.64
